Change the Weather History Date:

Saturday, April 20, 2013

  Actual Average Record
Temperature  
Mean Temperature 28 °F -  
Max Temperature 37 °F 60 °F 84 °F (1985)
Min Temperature 19 °F 38 °F 19 °F (2013)
Degree Days  
Heating Degree Days 37    
Moisture  
Dew Point 17 °F    
Average Humidity 62    
Maximum Humidity 93    
Minimum Humidity 33    
Precipitation  
Precipitation 0.00 in - - ()
Sea Level Pressure  
Sea Level Pressure 30.22 in    
Wind  
Wind Speed 5 mph (SE)    
Max Wind Speed 9 mph    
Max Gust Speed -    
Visibility 10 miles    
Events Snow    
Averages and records for this station are not official NWS values.
T = Trace of Precipitation, MM = Missing Value Source: NWS Daily Summary

Daily Weather History Graph

Daily Weather History Graph

Search for Another Location

Airport or City:

Trip Planner

Search our weather history database for the weather conditions in past years. The results will help you decide how hot, cold, wet, or windy it might be!

Date:

Astronomy

Apr. 20, 2013 Rise Set
Actual Time 6:24 AM CDT 8:10 PM CDT
Civil Twilight 5:52 AM CDT 8:41 PM CDT
Nautical Twilight 5:14 AM CDT 9:19 PM CDT
Astronomical Twilight 4:33 AM CDT 10:01 PM CDT
Moon 2:41 PM CDT (4/20) 3:28 AM CDT (4/20)
Length of Visible Light 14h 48m
Length of Day
13h 46m
Waxing Gibbous, 71% of the Moon is Illuminated
Apr 20
Waxing Gibbous
Apr 25
Full
May 2
Last Quarter
May 9
New
May 17
First Quarter

Hourly Weather History & Observations

Time (CDT) Temp. Windchill Dew Point Humidity Pressure Visibility Wind Dir Wind Speed Gust Speed Precip Events Conditions
2:51 AM 24.8 °F 17.9 °F 19.4 °F 80% 30.07 in 10.0 mi WNW 5.8 mph - N/A   Clear
3:13 AM 23.0 °F 15.8 °F 19.4 °F 86% 30.08 in 10.0 mi WNW 5.8 mph - N/A   Clear
3:33 AM 23.0 °F 15.8 °F 19.4 °F 86% 30.09 in 10.0 mi WNW 5.8 mph - N/A   Clear
3:53 AM 21.2 °F 13.6 °F 19.4 °F 93% 30.09 in 10.0 mi WNW 5.8 mph - N/A   Clear
4:13 AM 21.2 °F 13.6 °F 19.4 °F 93% 30.10 in 10.0 mi NW 5.8 mph - N/A   Clear
4:33 AM 21.2 °F 13.6 °F 19.4 °F 93% 30.11 in 10.0 mi WNW 5.8 mph - N/A   Clear
4:53 AM 21.2 °F 14.9 °F 17.6 °F 86% 30.11 in 10.0 mi WNW 4.6 mph - N/A   Clear
5:13 AM 21.2 °F 14.9 °F 17.6 °F 86% 30.12 in 10.0 mi WNW 4.6 mph - N/A   Clear
5:33 AM 21.2 °F 13.6 °F 17.6 °F 86% 30.13 in 10.0 mi WNW 5.8 mph - N/A   Clear
5:53 AM 19.4 °F 11.5 °F 17.6 °F 93% 30.13 in 10.0 mi WNW 5.8 mph - N/A   Clear
6:13 AM 19.4 °F 12.8 °F 17.6 °F 93% 30.14 in 10.0 mi NW 4.6 mph - N/A   Clear
6:33 AM 19.4 °F 12.8 °F 17.6 °F 93% 30.15 in 10.0 mi NW 4.6 mph - N/A   Clear
6:53 AM 19.4 °F 12.8 °F 17.6 °F 93% 30.16 in 10.0 mi NW 4.6 mph - N/A   Clear
7:13 AM 19.4 °F 12.8 °F 17.6 °F 93% 30.17 in 10.0 mi NW 4.6 mph - N/A   Clear
7:33 AM 21.2 °F 14.9 °F 17.6 °F 86% 30.18 in 10.0 mi NW 4.6 mph - N/A   Clear
7:53 AM 21.2 °F 13.6 °F 17.6 °F 86% 30.19 in 10.0 mi NW 5.8 mph - N/A   Clear
8:13 AM 21.2 °F 14.9 °F 17.6 °F 86% 30.20 in 10.0 mi NW 4.6 mph - N/A   Clear
8:33 AM 24.8 °F 20.5 °F 17.6 °F 74% 30.20 in 10.0 mi NW 3.5 mph - N/A   Clear
8:53 AM 24.8 °F 20.5 °F 19.4 °F 80% 30.21 in 10.0 mi NW 3.5 mph - N/A   Clear
9:12 AM 26.6 °F 22.6 °F 17.6 °F 69% 30.21 in 10.0 mi North 3.5 mph - N/A   Clear
9:33 AM 26.6 °F - 19.4 °F 74% 30.22 in 10.0 mi Calm Calm - N/A   Clear
9:53 AM 28.4 °F - 19.4 °F 69% 30.22 in 10.0 mi Calm Calm - N/A   Clear
10:13 AM 28.4 °F - 17.6 °F 64% 30.23 in 10.0 mi Calm Calm - N/A   Clear
10:33 AM 28.4 °F - 17.6 °F 64% 30.23 in 10.0 mi Calm Calm - N/A   Clear
10:52 AM 30.2 °F - 17.6 °F 60% 30.25 in 10.0 mi Calm Calm - N/A   Clear
11:13 AM 32.0 °F - 17.6 °F 55% 30.25 in 10.0 mi Calm Calm - N/A   Clear
11:32 AM 33.8 °F 30.8 °F 17.6 °F 52% 30.26 in 10.0 mi ESE 3.5 mph - N/A   Clear
11:53 AM 33.8 °F 30.8 °F 17.6 °F 52% 30.26 in 10.0 mi ESE 3.5 mph - N/A   Clear
12:13 PM 33.8 °F 29.6 °F 14.0 °F 44% 30.26 in 10.0 mi ESE 4.6 mph - N/A   Clear
12:32 PM 35.6 °F 30.7 °F 15.8 °F 44% 30.26 in 10.0 mi ESE 5.8 mph - N/A   Clear
12:53 PM 35.6 °F 30.7 °F 15.8 °F 44% 30.26 in 10.0 mi ESE 5.8 mph - N/A   Clear
1:13 PM 35.6 °F 29.9 °F 14.0 °F 41% 30.26 in 10.0 mi ESE 6.9 mph - N/A   Clear
1:33 PM 35.6 °F 29.2 °F 14.0 °F 41% 30.26 in 10.0 mi ESE 8.1 mph - N/A   Clear
1:53 PM 35.6 °F 30.7 °F 10.4 °F 35% 30.26 in 10.0 mi SE 5.8 mph - N/A   Clear
2:12 PM 37.4 °F 32.8 °F 12.2 °F 36% 30.26 in 10.0 mi SE 5.8 mph - N/A   Clear
2:33 PM 37.4 °F 33.8 °F 12.2 °F 36% 30.26 in 10.0 mi SSE 4.6 mph - N/A   Clear
2:53 PM 35.6 °F 29.9 °F 12.2 °F 38% 30.26 in 10.0 mi SSE 6.9 mph - N/A   Clear
3:12 PM 37.4 °F 33.8 °F 14.0 °F 38% 30.26 in 10.0 mi SSE 4.6 mph - N/A   Clear
3:33 PM 37.4 °F 32.8 °F 17.6 °F 45% 30.26 in 10.0 mi SSE 5.8 mph - N/A   Clear
3:52 PM 37.4 °F 32.8 °F 14.0 °F 38% 30.26 in 10.0 mi SSE 5.8 mph - N/A   Clear
4:13 PM 37.4 °F - 14.0 °F 38% 30.26 in 10.0 mi Calm Calm - N/A   Clear
4:33 PM 37.4 °F 33.8 °F 14.0 °F 38% 30.26 in 10.0 mi SSE 4.6 mph - N/A   Clear
4:52 PM 37.4 °F 32.8 °F 15.8 °F 41% 30.26 in 10.0 mi SSE 5.8 mph - N/A   Clear
5:13 PM 37.4 °F 33.8 °F 12.2 °F 36% 30.26 in 10.0 mi SSE 4.6 mph - N/A   Clear
5:33 PM 37.4 °F 32.1 °F 10.4 °F 33% 30.25 in 10.0 mi SE 6.9 mph - N/A   Clear
5:52 PM 35.6 °F 31.7 °F 10.4 °F 35% 30.25 in 10.0 mi SSE 4.6 mph - N/A   Clear
6:13 PM 35.6 °F 32.8 °F 12.2 °F 38% 30.25 in 10.0 mi SSE 3.5 mph - N/A   Clear
6:33 PM 35.6 °F 30.7 °F 15.8 °F 44% 30.24 in 10.0 mi SE 5.8 mph - N/A   Clear
6:53 PM 35.6 °F 28.6 °F 15.8 °F 44% 30.24 in 10.0 mi SE 9.2 mph - N/A   Clear
7:13 PM 33.8 °F 27.7 °F 17.6 °F 52% 30.24 in 10.0 mi SE 6.9 mph - N/A   Clear
7:33 PM 33.8 °F 28.6 °F 19.4 °F 56% 30.24 in 10.0 mi ESE 5.8 mph - N/A   Clear
7:52 PM 32.0 °F 28.7 °F 21.2 °F 64% 30.25 in 10.0 mi ESE 3.5 mph - N/A   Clear
8:13 PM 30.2 °F 25.4 °F 21.2 °F 69% 30.25 in 10.0 mi ESE 4.6 mph - N/A   Clear
8:33 PM 32.0 °F 28.7 °F 19.4 °F 60% 30.25 in 10.0 mi East 3.5 mph - N/A   Clear
8:52 PM 30.2 °F 25.4 °F 21.2 °F 69% 30.25 in 10.0 mi East 4.6 mph - N/A   Clear
9:13 PM 30.2 °F 24.3 °F 21.2 °F 69% 30.26 in 10.0 mi East 5.8 mph - N/A   Clear
9:33 PM 30.2 °F 23.4 °F 19.4 °F 64% 30.26 in 10.0 mi East 6.9 mph - N/A   Clear
9:52 PM 32.0 °F 25.6 °F 19.4 °F 60% 30.26 in 10.0 mi East 6.9 mph - N/A   Clear
10:13 PM 32.0 °F 26.4 °F 21.2 °F 64% 30.27 in 10.0 mi ESE 5.8 mph - N/A   Scattered Clouds
10:33 PM 32.0 °F 27.5 °F 19.4 °F 60% 30.27 in 10.0 mi SE 4.6 mph - N/A   Mostly Cloudy
10:53 PM 33.8 °F 30.8 °F 19.4 °F 56% 30.28 in 10.0 mi SSE 3.5 mph - N/A   Mostly Cloudy
11:13 PM 33.8 °F - 21.2 °F 60% 30.28 in 10.0 mi Calm Calm - N/A   Overcast
11:32 PM 33.8 °F 29.6 °F 21.2 °F 60% 30.28 in 10.0 mi SSE 4.6 mph - N/A   Overcast
11:53 PM 33.8 °F 29.6 °F 24.8 °F 70% 30.28 in 4.0 mi SSE 4.6 mph - N/A Snow Light Snow